Time;durP1;ratioP1;P1;durP2;ratioP2;P2;SDS_P1;SDS_P2;PMS_P1;PMS_P2;Temp;Humidity;BMP_temperature;BMP_pressure;BME280_temperature;BME280_humidity;BME280_pressure;Samples;Min_cycle;Max_cycle;Signal;HPM_P1;HPM_P2
2023/06/14 00:00:17;;;;;;;1.08;0.45;;;22.10;69.10;;;;;;6216441;23;20190;-81
2023/06/14 00:02:46;;;;;;;0.63;0.40;;;22.10;69.20;;;;;;6244290;23;20178;-83
2023/06/14 00:05:15;;;;;;;0.75;0.60;;;22.10;69.20;;;;;;6216216;23;20606;-82
2023/06/14 00:07:44;;;;;;;0.80;0.80;;;22.10;69.20;;;;;;6243755;23;20171;-83
2023/06/14 00:10:13;;;;;;;0.60;0.60;;;22.10;69.20;;;;;;6242844;23;20174;-81
2023/06/14 00:12:42;;;;;;;0.85;0.35;;;22.10;69.60;;;;;;6243099;23;20509;-83
2023/06/14 00:15:12;;;;;;;0.35;0.25;;;22.10;69.60;;;;;;6244029;23;20265;-82
2023/06/14 00:17:41;;;;;;;0.32;0.32;;;22.10;69.70;;;;;;6242978;23;20177;-82
2023/06/14 00:20:11;;;;;;;0.50;0.50;;;22.10;69.70;;;;;;6243330;23;20173;-81
2023/06/14 00:22:40;;;;;;;0.40;0.40;;;22.00;69.70;;;;;;6243244;23;20382;-81
2023/06/14 00:25:09;;;;;;;0.52;0.40;;;22.10;69.80;;;;;;6243166;23;20206;-82
2023/06/14 00:27:57;;;;;;;0.45;0.45;;;22.00;69.70;;;;;;6244288;23;20459;-83
2023/06/14 00:30:30;;;;;;;0.32;0.32;;;22.00;69.50;;;;;;6242464;23;20162;-81
2023/06/14 00:32:59;;;;;;;0.50;0.50;;;22.00;69.60;;;;;;6244727;23;20242;-83
2023/06/14 00:35:28;;;;;;;0.52;0.52;;;22.00;69.60;;;;;;6241754;23;20678;-81
2023/06/14 00:37:57;;;;;;;0.32;0.32;;;22.00;69.40;;;;;;6244648;23;20253;-83
2023/06/14 00:40:25;;;;;;;0.30;0.30;;;22.00;69.30;;;;;;6243216;23;20241;-81
2023/06/14 00:42:54;;;;;;;0.20;0.20;;;22.00;69.30;;;;;;6244541;23;20163;-81
2023/06/14 00:45:23;;;;;;;1.20;0.65;;;21.90;69.40;;;;;;6243612;23;20194;-81
2023/06/14 00:47:55;;;;;;;0.35;0.35;;;21.90;69.30;;;;;;6243469;23;20170;-83
2023/06/14 00:50:25;;;;;;;0.30;0.25;;;21.90;69.30;;;;;;6217435;23;20487;-82
2023/06/14 00:52:53;;;;;;;0.40;0.40;;;21.90;69.30;;;;;;6244398;23;20177;-82
2023/06/14 00:55:22;;;;;;;0.30;0.30;;;21.90;69.30;;;;;;6243119;23;20178;-81
2023/06/14 00:57:51;;;;;;;0.30;0.30;;;21.90;69.30;;;;;;6244414;23;20249;-82
2023/06/14 01:00:20;;;;;;;0.57;0.57;;;21.80;69.40;;;;;;6216755;23;20174;-82
2023/06/14 01:02:49;;;;;;;0.47;0.35;;;21.90;69.40;;;;;;6217080;23;20628;-82
2023/06/14 01:05:20;;;;;;;0.55;0.52;;;21.90;69.40;;;;;;6242918;23;20194;-82
2023/06/14 01:08:00;;;;;;;1.90;0.80;;;21.80;69.30;;;;;;6217601;23;20257;-81
2023/06/14 01:10:40;;;;;;;1.13;0.77;;;21.80;69.50;;;;;;6243559;23;20253;-81
2023/06/14 01:13:14;;;;;;;0.90;0.82;;;21.80;69.40;;;;;;6243846;23;20162;-82
2023/06/14 01:15:44;;;;;;;0.52;0.52;;;21.80;70.20;;;;;;6245952;23;20158;-81
2023/06/14 01:18:17;;;;;;;0.30;0.30;;;21.80;69.40;;;;;;6244962;23;20505;-81
2023/06/14 01:20:49;;;;;;;0.40;0.40;;;21.70;69.30;;;;;;6244459;23;20159;-83
2023/06/14 01:23:20;;;;;;;0.20;0.20;;;21.80;69.30;;;;;;6245819;23;20543;-83
2023/06/14 01:25:52;;;;;;;0.20;0.20;;;21.70;69.20;;;;;;6243921;23;20924;-83
2023/06/14 01:28:22;;;;;;;0.28;0.28;;;21.70;69.30;;;;;;6245356;23;20159;-81
2023/06/14 01:30:54;;;;;;;0.60;0.60;;;21.70;69.30;;;;;;6244914;23;20170;-82
2023/06/14 01:33:27;;;;;;;0.60;0.60;;;21.70;69.50;;;;;;6220233;23;20524;-82
2023/06/14 01:35:57;;;;;;;0.25;0.25;;;21.70;69.60;;;;;;6243177;23;20158;-81
2023/06/14 01:38:28;;;;;;;0.52;0.40;;;21.60;69.60;;;;;;6245701;23;20522;-82
2023/06/14 01:40:59;;;;;;;0.40;0.30;;;21.60;69.60;;;;;;6243970;23;20163;-82
2023/06/14 01:43:29;;;;;;;0.30;0.30;;;21.60;69.80;;;;;;6246107;23;20170;-82
2023/06/14 01:45:59;;;;;;;1.48;0.68;;;21.60;69.90;;;;;;6244003;23;20348;-83
2023/06/14 01:48:28;;;;;;;0.55;0.40;;;21.60;69.80;;;;;;6245548;23;20695;-83
2023/06/14 01:50:56;;;;;;;0.25;0.25;;;21.60;69.70;;;;;;6244559;23;20170;-82
2023/06/14 01:53:25;;;;;;;0.20;0.20;;;21.50;69.90;;;;;;6245153;23;20707;-81
2023/06/14 01:55:55;;;;;;;0.30;0.30;;;21.60;69.70;;;;;;6244370;23;20232;-82
2023/06/14 01:58:23;;;;;;;0.20;0.20;;;21.60;69.60;;;;;;6244069;23;20628;-82
2023/06/14 02:00:55;;;;;;;0.25;0.20;;;21.50;69.60;;;;;;6245331;23;20170;-82
2023/06/14 02:03:24;;;;;;;0.20;0.20;;;21.50;69.80;;;;;;6245738;23;20162;-81
2023/06/14 02:05:54;;;;;;;0.30;0.30;;;21.50;69.70;;;;;;6244488;23;20281;-82
2023/06/14 02:08:23;;;;;;;0.20;0.20;;;21.50;69.80;;;;;;6245031;23;20510;-83
2023/06/14 02:10:54;;;;;;;0.40;0.40;;;21.50;69.80;;;;;;6244500;23;20193;-82
2023/06/14 02:13:23;;;;;;;0.20;0.20;;;21.50;69.80;;;;;;6245135;23;20162;-81
2023/06/14 02:15:54;;;;;;;0.20;0.20;;;21.50;69.70;;;;;;6244346;23;20174;-83
2023/06/14 02:18:24;;;;;;;0.68;0.57;;;21.50;69.90;;;;;;6245631;23;20155;-82
2023/06/14 02:20:53;;;;;;;0.35;0.35;;;21.50;70.00;;;;;;6243852;23;20257;-82
2023/06/14 02:23:21;;;;;;;0.30;0.30;;;21.40;70.00;;;;;;6244670;23;20174;-82
2023/06/14 02:25:50;;;;;;;0.68;0.30;;;21.50;70.30;;;;;;6244153;23;20190;-83
2023/06/14 02:28:20;;;;;;;0.38;0.35;;;21.40;70.20;;;;;;6244457;23;20482;-82
2023/06/14 02:30:49;;;;;;;0.22;0.22;;;21.40;71.00;;;;;;6244112;23;20169;-82
2023/06/14 02:33:18;;;;;;;0.30;0.30;;;21.40;70.30;;;;;;6243885;23;20185;-82
2023/06/14 02:35:47;;;;;;;0.28;0.28;;;21.40;70.20;;;;;;6244772;23;20178;-83
2023/06/14 02:38:15;;;;;;;0.30;0.30;;;21.40;70.20;;;;;;6244112;23;20167;-82
2023/06/14 02:40:44;;;;;;;0.40;0.40;;;21.40;70.20;;;;;;6218061;23;20189;-82
2023/06/14 02:43:13;;;;;;;0.20;0.20;;;21.40;70.20;;;;;;6245059;23;20175;-83
2023/06/14 02:45:43;;;;;;;1.35;0.60;;;21.40;70.20;;;;;;6243720;23;20171;-82
2023/06/14 02:48:11;;;;;;;1.50;0.57;;;21.40;70.10;;;;;;6245161;23;20170;-82
2023/06/14 02:50:40;;;;;;;0.28;0.28;;;21.40;70.30;;;;;;6244438;23;20225;-83
2023/06/14 02:53:09;;;;;;;1.35;0.57;;;21.40;70.40;;;;;;6244950;23;20202;-82
2023/06/14 02:55:40;;;;;;;0.47;0.32;;;21.40;70.50;;;;;;6243383;23;20173;-81
2023/06/14 02:58:09;;;;;;;0.40;0.40;;;21.40;70.40;;;;;;6245239;23;20162;-83
2023/06/14 03:00:38;;;;;;;0.50;0.50;;;21.40;70.40;;;;;;6216730;23;20257;-83
2023/06/14 03:03:13;;;;;;;0.30;0.30;;;21.40;70.50;;;;;;6243812;23;20170;-83
2023/06/14 03:05:45;;;;;;;1.17;0.63;;;21.40;70.60;;;;;;6245080;23;20660;-83
2023/06/14 03:08:16;;;;;;;0.30;0.30;;;21.40;70.80;;;;;;6243445;23;20650;-83
2023/06/14 03:10:45;;;;;;;0.30;0.30;;;21.40;70.80;;;;;;6244529;23;20671;-83
2023/06/14 03:13:15;;;;;;;0.20;0.20;;;21.40;71.00;;;;;;6244269;23;20642;-83
2023/06/14 03:15:44;;;;;;;0.20;0.20;;;21.40;71.30;;;;;;6243923;23;20174;-83
2023/06/14 03:18:16;;;;;;;0.47;0.30;;;21.40;71.10;;;;;;6243767;23;20170;-82
2023/06/14 03:20:45;;;;;;;0.30;0.30;;;21.50;71.50;;;;;;6243069;23;20166;-83
2023/06/14 03:23:14;;;;;;;0.60;0.60;;;21.40;71.30;;;;;;6244560;22;20171;-83
2023/06/14 03:25:43;;;;;;;0.30;0.30;;;21.50;71.40;;;;;;6242299;23;20592;-83
2023/06/14 03:28:11;;;;;;;5.43;1.23;;;21.50;71.60;;;;;;6243130;23;20204;-83
2023/06/14 03:30:40;;;;;;;0.38;0.38;;;21.50;71.50;;;;;;6244240;23;20270;-83
2023/06/14 03:33:09;;;;;;;0.30;0.30;;;21.50;71.20;;;;;;6244533;23;20204;-83
2023/06/14 03:35:39;;;;;;;0.32;0.32;;;21.60;71.20;;;;;;6243037;23;20220;-83
2023/06/14 03:38:08;;;;;;;0.43;0.30;;;21.60;71.10;;;;;;6242198;23;20158;-84
2023/06/14 03:40:37;;;;;;;0.38;0.38;;;21.60;71.20;;;;;;6217249;23;20173;-83
2023/06/14 03:43:05;;;;;;;0.73;0.73;;;21.60;71.20;;;;;;6244428;23;20246;-83
2023/06/14 03:45:34;;;;;;;0.30;0.30;;;21.60;71.30;;;;;;6243111;23;20623;-83
2023/06/14 03:48:03;;;;;;;0.75;0.47;;;21.70;71.20;;;;;;6244104;23;20198;-83
2023/06/14 03:50:32;;;;;;;0.73;0.65;;;21.70;71.20;;;;;;6243878;23;20224;-81
2023/06/14 03:53:02;;;;;;;2.33;1.08;;;21.60;71.50;;;;;;6244031;23;20177;-82
2023/06/14 03:55:33;;;;;;;0.30;0.30;;;21.70;71.40;;;;;;6244056;23;20174;-82
2023/06/14 03:58:04;;;;;;;1.00;0.75;;;21.70;71.30;;;;;;6254262;23;20165;-82
2023/06/14 04:00:33;;;;;;;1.27;0.50;;;21.70;71.60;;;;;;6242502;23;20175;-83
2023/06/14 04:03:03;;;;;;;0.70;0.57;;;21.70;71.50;;;;;;6244281;23;20193;-82
2023/06/14 04:05:32;;;;;;;0.57;0.57;;;21.70;71.50;;;;;;6242478;23;20560;-81
2023/06/14 04:08:02;;;;;;;0.20;0.20;;;21.70;71.30;;;;;;6244408;23;20663;-82
2023/06/14 04:10:30;;;;;;;0.22;0.22;;;21.70;71.30;;;;;;6242370;23;20173;-81
2023/06/14 04:13:00;;;;;;;0.22;0.22;;;21.80;71.40;;;;;;6243402;23;20500;-82
2023/06/14 04:15:28;;;;;;;0.50;0.50;;;21.80;71.40;;;;;;6216577;23;20167;-81
2023/06/14 04:17:58;;;;;;;0.45;0.45;;;21.80;71.40;;;;;;6244726;23;20190;-83
2023/06/14 04:20:26;;;;;;;0.43;0.43;;;21.80;71.50;;;;;;6242513;23;20166;-81
2023/06/14 04:22:57;;;;;;;0.55;0.52;;;21.80;71.40;;;;;;6243946;23;20182;-81
2023/06/14 04:25:27;;;;;;;0.70;0.22;;;21.90;71.30;;;;;;6216240;23;20209;-81
2023/06/14 04:27:57;;;;;;;0.40;0.40;;;21.90;71.30;;;;;;6242763;23;20197;-82
2023/06/14 04:30:28;;;;;;;0.82;0.50;;;21.90;71.20;;;;;;6243071;23;20643;-81
2023/06/14 04:32:57;;;;;;;0.43;0.43;;;22.00;71.20;;;;;;6244165;23;20481;-82
2023/06/14 04:35:27;;;;;;;0.20;0.20;;;22.00;71.20;;;;;;6242821;23;20170;-81
2023/06/14 04:37:57;;;;;;;0.20;0.20;;;22.00;71.30;;;;;;6243705;23;20178;-83
2023/06/14 04:40:27;;;;;;;1.08;0.88;;;22.00;71.20;;;;;;6242905;23;20174;-81
2023/06/14 04:42:55;;;;;;;0.22;0.22;;;22.00;71.20;;;;;;6244424;23;20167;-83
2023/06/14 04:45:32;;;;;;;0.88;0.45;;;22.00;71.20;;;;;;6242041;23;20174;-81
2023/06/14 04:48:01;;;;;;;1.60;0.73;;;22.00;71.10;;;;;;6219690;23;20189;-82
2023/06/14 04:50:32;;;;;;;0.95;0.85;;;22.00;71.00;;;;;;6242260;23;20232;-81
2023/06/14 04:53:01;;;;;;;0.80;0.73;;;22.00;70.90;;;;;;6244474;23;20158;-82
2023/06/14 04:55:32;;;;;;;2.75;0.70;;;22.10;70.90;;;;;;6242456;23;20175;-81
2023/06/14 04:58:02;;;;;;;0.10;0.10;;;22.10;70.90;;;;;;6243351;23;20509;-82
2023/06/14 05:00:31;;;;;;;0.68;0.68;;;22.10;70.90;;;;;;6217937;23;20181;-82
2023/06/14 05:03:00;;;;;;;0.30;0.30;;;22.10;70.80;;;;;;6243576;23;20198;-82
2023/06/14 05:05:29;;;;;;;0.60;0.40;;;22.10;70.90;;;;;;6242740;23;20597;-82
2023/06/14 05:07:58;;;;;;;0.43;0.43;;;22.10;70.90;;;;;;6244357;23;20216;-83
2023/06/14 05:10:27;;;;;;;0.65;0.65;;;22.10;70.90;;;;;;6242659;23;20249;-82
2023/06/14 05:12:56;;;;;;;0.40;0.40;;;22.10;70.80;;;;;;6243815;23;20548;-83
2023/06/14 05:15:26;;;;;;;3.20;0.52;;;22.10;70.90;;;;;;6242150;23;20167;-81
2023/06/14 05:17:55;;;;;;;0.60;0.50;;;22.10;70.90;;;;;;6244124;23;20170;-82
2023/06/14 05:20:26;;;;;;;0.80;0.50;;;22.20;70.80;;;;;;6241595;23;20167;-81
2023/06/14 05:22:56;;;;;;;0.50;0.50;;;22.10;70.90;;;;;;6244316;23;20162;-82
2023/06/14 05:25:25;;;;;;;4.00;1.13;;;22.20;70.90;;;;;;6242807;22;20673;-81
2023/06/14 05:27:53;;;;;;;1.13;0.77;;;22.20;71.00;;;;;;6243731;23;20647;-82
2023/06/14 05:30:23;;;;;;;0.73;0.70;;;22.20;70.90;;;;;;6243213;23;20166;-81
2023/06/14 05:32:52;;;;;;;0.20;0.20;;;22.20;70.90;;;;;;6242737;23;20170;-82
2023/06/14 05:35:22;;;;;;;0.30;0.25;;;22.20;70.80;;;;;;6242433;23;20175;-81
2023/06/14 05:37:50;;;;;;;1.20;0.75;;;22.20;70.90;;;;;;6243683;23;20622;-82
2023/06/14 05:40:19;;;;;;;1.10;1.00;;;22.30;70.90;;;;;;6243396;23;20170;-80
2023/06/14 05:42:48;;;;;;;1.08;0.98;;;22.30;70.90;;;;;;6244227;23;20174;-83
2023/06/14 05:45:17;;;;;;;0.60;0.43;;;22.40;71.00;;;;;;6242405;23;20173;-81
2023/06/14 05:47:47;;;;;;;0.90;0.52;;;22.40;70.90;;;;;;6243745;23;20186;-82
2023/06/14 05:50:16;;;;;;;0.52;0.52;;;22.50;70.80;;;;;;6241061;23;20159;-81
2023/06/14 05:52:44;;;;;;;0.65;0.65;;;22.50;70.80;;;;;;6243716;23;20171;-82
2023/06/14 05:55:13;;;;;;;0.77;0.52;;;22.60;70.80;;;;;;6216400;23;20467;-80
2023/06/14 05:57:42;;;;;;;2.13;1.02;;;22.70;70.80;;;;;;6243193;23;20574;-82
2023/06/14 06:00:14;;;;;;;1.00;0.85;;;22.80;70.80;;;;;;6242802;23;20180;-81
2023/06/14 06:02:43;;;;;;;1.45;1.05;;;22.90;70.70;;;;;;6219153;23;20177;-81
2023/06/14 06:05:15;;;;;;;3.28;1.67;;;23.00;70.60;;;;;;6218804;23;20194;-80
2023/06/14 06:07:45;;;;;;;2.25;1.48;;;23.00;70.20;;;;;;6244528;23;20155;-80
2023/06/14 06:10:14;;;;;;;1.60;0.70;;;23.10;70.10;;;;;;6244479;23;20630;-81
2023/06/14 06:12:42;;;;;;;0.77;0.77;;;23.20;70.10;;;;;;6244945;23;20477;-82
2023/06/14 06:15:12;;;;;;;2.30;1.05;;;23.30;70.10;;;;;;6244621;23;20166;-81
2023/06/14 06:17:41;;;;;;;1.05;0.82;;;23.40;69.90;;;;;;6244336;23;20181;-81
2023/06/14 06:20:28;;;;;;;1.08;0.95;;;23.40;69.80;;;;;;6242678;23;21026;-82
2023/06/14 06:22:58;;;;;;;3.65;0.57;;;23.50;69.30;;;;;;6245011;23;20611;-82
2023/06/14 06:25:27;;;;;;;4.10;2.15;;;23.60;69.00;;;;;;6193337;23;20199;-82
2023/06/14 06:27:59;;;;;;;2.35;2.15;;;23.60;68.80;;;;;;6244259;23;20220;-83
2023/06/14 06:30:28;;;;;;;0.57;0.57;;;23.60;68.60;;;;;;6243258;23;20447;-79
2023/06/14 06:32:56;;;;;;;2.92;1.35;;;23.60;68.70;;;;;;6217970;23;20492;-81
2023/06/14 06:35:27;;;;;;;2.55;1.30;;;23.70;68.90;;;;;;6244708;23;20209;-83
2023/06/14 06:37:56;;;;;;;12.80;1.40;;;23.70;68.90;;;;;;6219344;23;20225;-83
2023/06/14 06:40:24;;;;;;;1.63;1.08;;;23.70;68.80;;;;;;6242985;23;20171;-80
2023/06/14 06:42:54;;;;;;;1.65;1.00;;;23.80;68.60;;;;;;6245595;23;20167;-83
2023/06/14 06:45:24;;;;;;;1.58;1.45;;;23.80;68.60;;;;;;6242697;23;20166;-82
2023/06/14 06:47:53;;;;;;;0.50;0.50;;;23.90;68.50;;;;;;6243676;23;20198;-84
2023/06/14 06:50:24;;;;;;;1.05;0.95;;;23.90;68.60;;;;;;6244608;23;20547;-80
2023/06/14 06:52:55;;;;;;;0.77;0.75;;;24.00;68.70;;;;;;6245656;23;20159;-84
2023/06/14 06:55:23;;;;;;;1.40;0.70;;;24.00;68.60;;;;;;6243841;23;20490;-83
2023/06/14 06:57:53;;;;;;;1.33;0.73;;;24.10;69.40;;;;;;6245677;23;20170;-83
2023/06/14 07:00:22;;;;;;;0.60;0.60;;;24.20;68.60;;;;;;6243635;23;20220;-82
2023/06/14 07:02:52;;;;;;;0.50;0.40;;;24.20;68.60;;;;;;6244601;23;20174;-84
2023/06/14 07:05:20;;;;;;;0.85;0.70;;;24.30;68.50;;;;;;6244511;23;20198;-82
2023/06/14 07:07:49;;;;;;;1.30;0.70;;;24.20;68.20;;;;;;6244175;23;20181;-82
2023/06/14 07:10:19;;;;;;;1.50;0.70;;;24.30;68.10;;;;;;6242746;23;20194;-83
2023/06/14 07:12:47;;;;;;;0.90;0.50;;;24.40;68.10;;;;;;6244672;23;20170;-83
2023/06/14 07:15:16;;;;;;;2.38;1.08;;;24.40;68.20;;;;;;6216916;23;20171;-82
2023/06/14 07:17:45;;;;;;;2.53;0.93;;;24.50;68.20;;;;;;6245139;23;20206;-83
2023/06/14 07:20:15;;;;;;;0.95;0.70;;;24.50;68.20;;;;;;6243284;23;20174;-81
2023/06/14 07:22:44;;;;;;;1.55;1.08;;;24.60;68.20;;;;;;6244280;23;20724;-84
2023/06/14 07:25:14;;;;;;;0.90;0.77;;;24.60;67.90;;;;;;6243180;22;20195;-80
2023/06/14 07:27:47;;;;;;;1.77;0.65;;;24.60;67.80;;;;;;6243063;23;20162;-83
2023/06/14 07:30:15;;;;;;;14.93;0.80;;;24.70;67.70;;;;;;6243960;23;20186;-80
2023/06/14 07:32:44;;;;;;;5.13;0.40;;;24.70;67.70;;;;;;6217917;23;20257;-83
2023/06/14 07:35:13;;;;;;;0.57;0.40;;;24.70;67.60;;;;;;6243147;23;20166;-82
2023/06/14 07:37:42;;;;;;;1.00;0.50;;;24.80;67.60;;;;;;6245229;23;20171;-82
2023/06/14 07:40:12;;;;;;;0.85;0.55;;;24.80;67.40;;;;;;6216765;23;20167;-82
2023/06/14 07:42:40;;;;;;;1.15;0.73;;;24.80;67.30;;;;;;6244938;23;20206;-83
2023/06/14 07:45:13;;;;;;;1.00;0.73;;;24.90;67.00;;;;;;6242095;23;20547;-82
2023/06/14 07:47:42;;;;;;;1.17;1.05;;;24.90;66.90;;;;;;6243178;23;20163;-82
2023/06/14 07:50:12;;;;;;;0.95;0.77;;;25.00;67.00;;;;;;6217492;23;20206;-81
2023/06/14 07:52:41;;;;;;;2.03;1.00;;;25.00;66.70;;;;;;6244634;23;20158;-83
2023/06/14 07:55:10;;;;;;;0.85;0.85;;;25.00;66.40;;;;;;6216589;23;20171;-82
2023/06/14 07:57:39;;;;;;;0.60;0.50;;;25.10;66.50;;;;;;6242765;23;20602;-83
2023/06/14 08:00:14;;;;;;;0.90;0.85;;;25.20;66.50;;;;;;6244510;23;20189;-83
2023/06/14 08:02:42;;;;;;;0.70;0.70;;;25.20;66.50;;;;;;6216020;23;20519;-83
2023/06/14 08:05:12;;;;;;;0.77;0.55;;;25.20;66.30;;;;;;6243043;23;20616;-82
2023/06/14 08:07:42;;;;;;;0.52;0.52;;;25.30;66.30;;;;;;6244546;23;20177;-83
2023/06/14 08:10:11;;;;;;;1.65;0.80;;;25.30;66.00;;;;;;6242752;23;20195;-82
2023/06/14 08:12:40;;;;;;;0.85;0.65;;;25.40;66.00;;;;;;6242961;23;20499;-83
2023/06/14 08:15:11;;;;;;;1.15;0.60;;;25.40;65.70;;;;;;6243352;23;20174;-83
2023/06/14 08:17:44;;;;;;;0.90;0.50;;;25.40;65.20;;;;;;6244364;23;20635;-83
2023/06/14 08:20:13;;;;;;;2.05;0.93;;;25.50;65.30;;;;;;6242995;23;20499;-82
2023/06/14 08:22:42;;;;;;;0.40;0.40;;;25.50;64.90;;;;;;6216610;23;20180;-82
2023/06/14 08:25:12;;;;;;;0.82;0.75;;;25.60;64.80;;;;;;6243150;23;20559;-82
2023/06/14 08:27:41;;;;;;;1.58;1.17;;;25.60;64.10;;;;;;6242845;23;20190;-82
2023/06/14 08:30:13;;;;;;;0.75;0.73;;;25.60;63.50;;;;;;6243856;23;20252;-82
2023/06/14 08:32:41;;;;;;;1.50;0.90;;;25.60;63.80;;;;;;6243957;23;20604;-83
2023/06/14 08:35:10;;;;;;;1.27;0.63;;;25.60;63.90;;;;;;6242035;23;20204;-81
2023/06/14 08:37:41;;;;;;;0.52;0.50;;;25.60;63.90;;;;;;6242784;23;20173;-83
2023/06/14 08:40:21;;;;;;;0.50;0.50;;;25.70;63.80;;;;;;6242121;23;20158;-82
2023/06/14 08:42:52;;;;;;;1.80;0.65;;;25.70;63.40;;;;;;6244192;23;20166;-83
2023/06/14 08:45:24;;;;;;;1.38;0.88;;;25.70;63.50;;;;;;6243440;23;20155;-82
2023/06/14 08:47:59;;;;;;;1.38;0.77;;;25.70;63.80;;;;;;6218726;23;20186;-83
2023/06/14 08:50:31;;;;;;;0.65;0.55;;;25.70;63.70;;;;;;6217063;23;20193;-82
2023/06/14 08:53:02;;;;;;;0.85;0.60;;;25.70;63.50;;;;;;6243656;23;20197;-82
2023/06/14 08:55:34;;;;;;;0.70;0.50;;;25.80;63.70;;;;;;6242456;23;20644;-84
2023/06/14 08:58:05;;;;;;;0.73;0.45;;;25.80;63.40;;;;;;6242654;23;20654;-83
2023/06/14 09:00:37;;;;;;;2.08;1.00;;;25.80;63.30;;;;;;6242120;23;20194;-83
2023/06/14 09:03:12;;;;;;;2.15;0.73;;;25.80;63.40;;;;;;6243931;23;20216;-83
2023/06/14 09:05:42;;;;;;;0.88;0.50;;;25.80;63.30;;;;;;6242377;23;20189;-83
2023/06/14 09:08:11;;;;;;;1.38;0.90;;;25.80;63.00;;;;;;6243986;23;20173;-83
2023/06/14 09:10:41;;;;;;;2.72;1.00;;;25.90;63.00;;;;;;6242297;23;20194;-83
2023/06/14 09:13:09;;;;;;;1.10;0.68;;;25.90;62.70;;;;;;6244152;23;20160;-83
2023/06/14 09:15:39;;;;;;;1.08;0.45;;;25.90;62.50;;;;;;6242928;23;20174;-82
2023/06/14 09:18:07;;;;;;;1.45;0.50;;;26.00;62.50;;;;;;6243126;23;20682;-83
2023/06/14 09:20:38;;;;;;;2.05;0.60;;;26.10;62.70;;;;;;6242944;23;20183;-83
2023/06/14 09:23:07;;;;;;;0.50;0.45;;;26.20;62.80;;;;;;6242819;23;20173;-83
2023/06/14 09:25:44;;;;;;;1.30;0.73;;;26.20;62.70;;;;;;6211750;23;20219;-83
2023/06/14 09:28:13;;;;;;;1.13;0.40;;;26.30;62.70;;;;;;6213374;23;20163;-82
2023/06/14 09:30:43;;;;;;;0.85;0.82;;;26.30;62.70;;;;;;6211992;23;20589;-84
2023/06/14 09:33:17;;;;;;;0.98;0.55;;;26.50;62.70;;;;;;6213425;23;20190;-84
2023/06/14 09:35:47;;;;;;;0.80;0.40;;;26.50;62.40;;;;;;6212599;23;20159;-83
2023/06/14 09:38:15;;;;;;;0.47;0.43;;;26.60;62.40;;;;;;6214659;23;20172;-82
2023/06/14 09:40:43;;;;;;;0.55;0.55;;;26.70;62.00;;;;;;6214061;23;20175;-83
2023/06/14 09:43:12;;;;;;;1.38;0.98;;;26.80;61.60;;;;;;6214414;23;20171;-84
2023/06/14 09:45:40;;;;;;;0.25;0.25;;;26.90;61.30;;;;;;6214146;23;20190;-83
2023/06/14 09:48:10;;;;;;;0.57;0.57;;;26.90;60.60;;;;;;6215252;23;20171;-83
2023/06/14 09:50:40;;;;;;;0.45;0.40;;;26.90;59.80;;;;;;6214072;23;20530;-83
2023/06/14 09:53:11;;;;;;;0.60;0.60;;;27.00;60.20;;;;;;6214786;23;20186;-83
2023/06/14 09:55:42;;;;;;;1.42;0.85;;;26.90;59.00;;;;;;6213289;23;20159;-83
2023/06/14 09:58:13;;;;;;;2.05;1.17;;;26.80;58.80;;;;;;6214006;23;20163;-82
2023/06/14 10:00:43;;;;;;;0.50;0.47;;;26.80;59.50;;;;;;6215369;23;20163;-82
2023/06/14 10:03:28;;;;;;;0.90;0.77;;;26.80;59.20;;;;;;6214357;23;20163;-83
2023/06/14 10:06:11;;;;;;;0.52;0.50;;;26.90;59.60;;;;;;6214200;23;20496;-84
2023/06/14 10:08:41;;;;;;;2.30;0.77;;;27.00;59.70;;;;;;6214781;23;20172;-82
2023/06/14 10:11:10;;;;;;;2.53;0.70;;;27.00;59.80;;;;;;6213489;23;20184;-83
2023/06/14 10:13:39;;;;;;;1.40;0.90;;;27.00;59.70;;;;;;6215098;23;20173;-82
2023/06/14 10:16:13;;;;;;;0.50;0.32;;;27.10;59.80;;;;;;6212829;23;20250;-82
2023/06/14 10:18:50;;;;;;;1.85;0.77;;;27.10;59.70;;;;;;6215390;23;20161;-83
2023/06/14 10:21:27;;;;;;;0.40;0.40;;;27.20;59.70;;;;;;6214585;23;20230;-83
2023/06/14 10:24:01;;;;;;;0.47;0.45;;;27.20;59.70;;;;;;6223979;22;20190;-83
2023/06/14 10:26:30;;;;;;;0.40;0.40;;;27.20;59.60;;;;;;6245350;23;20183;-83
2023/06/14 10:29:01;;;;;;;0.88;0.40;;;27.20;59.60;;;;;;6243998;23;20173;-83
2023/06/14 10:31:44;;;;;;;0.98;0.70;;;27.30;59.60;;;;;;6243768;23;20273;-82
2023/06/14 10:34:23;;;;;;;1.42;1.08;;;27.30;59.70;;;;;;6244450;23;20158;-83
2023/06/14 10:37:06;;;;;;;0.47;0.45;;;27.30;59.20;;;;;;6243903;23;20162;-83
2023/06/14 10:39:41;;;;;;;1.30;0.65;;;27.30;59.20;;;;;;6245288;23;20165;-83
2023/06/14 10:42:09;;;;;;;0.82;0.65;;;27.40;59.40;;;;;;6244231;23;20190;-82
2023/06/14 10:44:43;;;;;;;1.48;0.75;;;27.40;59.50;;;;;;6218499;23;20503;-82
2023/06/14 10:47:26;;;;;;;0.88;0.80;;;27.40;59.50;;;;;;6244093;23;20177;-83
2023/06/14 10:49:58;;;;;;;1.45;0.73;;;27.50;59.50;;;;;;6245322;23;20162;-83
2023/06/14 10:52:29;;;;;;;0.30;0.30;;;27.60;59.10;;;;;;6243851;23;20218;-83
2023/06/14 10:55:05;;;;;;;2.80;1.90;;;27.60;59.20;;;;;;6244378;23;20237;-83
2023/06/14 10:57:35;;;;;;;0.73;0.73;;;27.60;59.10;;;;;;6245087;23;20193;-84
2023/06/14 11:00:13;;;;;;;0.98;0.90;;;27.60;58.60;;;;;;6254177;23;20159;-84
2023/06/14 11:03:13;;;;;;;1.17;0.75;;;27.70;58.70;;;;;;6244360;23;20531;-82
2023/06/14 11:05:52;;;;;;;0.80;0.65;;;27.70;59.00;;;;;;6243828;23;20170;-83
2023/06/14 11:09:03;;;;;;;0.82;0.80;;;27.90;58.90;;;;;;6245063;23;20162;-84
2023/06/14 11:11:34;;;;;;;1.42;1.05;;;27.90;58.60;;;;;;6125016;23;20248;-83
2023/06/14 11:14:03;;;;;;;1.67;1.05;;;28.10;58.90;;;;;;6244224;23;20601;-83
2023/06/14 11:16:33;;;;;;;2.28;1.02;;;28.20;58.90;;;;;;6218544;23;20197;-83
2023/06/14 11:19:04;;;;;;;0.88;0.77;;;28.30;58.90;;;;;;6244552;23;20629;-83
2023/06/14 11:21:35;;;;;;;0.40;0.40;;;28.30;58.80;;;;;;6243805;23;20174;-83
2023/06/14 11:24:04;;;;;;;0.30;0.30;;;28.30;58.80;;;;;;6216961;23;20195;-82
2023/06/14 11:26:34;;;;;;;0.40;0.40;;;28.40;58.50;;;;;;6243827;23;20194;-84
2023/06/14 11:29:03;;;;;;;0.52;0.52;;;28.40;58.40;;;;;;6242907;23;20163;-83
2023/06/14 11:31:32;;;;;;;0.68;0.57;;;28.40;58.20;;;;;;6217895;23;20269;-82
2023/06/14 11:34:03;;;;;;;0.30;0.30;;;28.40;57.90;;;;;;6244386;23;20189;-84
2023/06/14 11:36:35;;;;;;;3.42;0.80;;;28.40;57.90;;;;;;6242411;23;20198;-83
2023/06/14 11:39:06;;;;;;;0.43;0.43;;;28.30;57.70;;;;;;6243817;23;20161;-83
2023/06/14 11:41:37;;;;;;;0.93;0.80;;;28.30;57.70;;;;;;6243592;23;20234;-84
2023/06/14 11:44:07;;;;;;;0.98;0.63;;;28.30;57.80;;;;;;6244106;23;20159;-80
2023/06/14 11:46:36;;;;;;;0.70;0.65;;;28.30;57.90;;;;;;6217600;23;20180;-83
2023/06/14 11:49:06;;;;;;;0.77;0.55;;;28.30;58.20;;;;;;6244111;23;20174;-83
2023/06/14 11:51:37;;;;;;;0.88;0.68;;;28.30;58.30;;;;;;6218150;23;20190;-82
2023/06/14 11:54:07;;;;;;;0.32;0.32;;;28.40;58.40;;;;;;6243377;23;20155;-82
2023/06/14 11:56:38;;;;;;;0.70;0.60;;;28.40;58.20;;;;;;6217747;23;20158;-82
2023/06/14 11:59:07;;;;;;;0.82;0.80;;;28.40;57.80;;;;;;6192660;23;20159;-84
2023/06/14 12:01:39;;;;;;;1.33;0.60;;;28.40;57.70;;;;;;6244277;23;20166;-84
2023/06/14 12:04:08;;;;;;;0.55;0.45;;;28.40;57.20;;;;;;6243139;23;20547;-83
2023/06/14 12:06:39;;;;;;;1.08;0.70;;;28.50;57.50;;;;;;6242878;23;20483;-83
2023/06/14 12:09:12;;;;;;;0.93;0.60;;;28.50;57.70;;;;;;6217898;23;20915;-83
2023/06/14 12:11:42;;;;;;;0.77;0.77;;;28.50;57.70;;;;;;6243859;23;20221;-83
2023/06/14 12:14:11;;;;;;;0.47;0.47;;;28.60;57.60;;;;;;6243007;23;20166;-82
2023/06/14 12:16:41;;;;;;;0.65;0.52;;;28.60;57.50;;;;;;6242868;23;20174;-83
2023/06/14 12:19:14;;;;;;;0.65;0.43;;;28.70;57.60;;;;;;6243814;23;20163;-83
2023/06/14 12:21:48;;;;;;;2.00;0.93;;;28.80;57.60;;;;;;6243161;23;20197;-80
2023/06/14 12:24:17;;;;;;;2.22;1.13;;;28.80;57.50;;;;;;6243606;22;20273;-83
2023/06/14 12:26:46;;;;;;;0.52;0.30;;;28.90;57.50;;;;;;6243852;23;20166;-84
2023/06/14 12:29:15;;;;;;;0.75;0.60;;;29.00;57.70;;;;;;6243615;23;20221;-85
2023/06/14 12:31:44;;;;;;;3.63;1.10;;;29.00;57.40;;;;;;6243198;23;20190;-84
2023/06/14 12:34:12;;;;;;;12.68;1.10;;;29.10;56.80;;;;;;6243104;23;20175;-82
2023/06/14 12:36:44;;;;;;;5.50;0.85;;;29.30;56.60;;;;;;6241927;23;20493;-84
2023/06/14 12:39:14;;;;;;;0.75;0.57;;;29.30;56.40;;;;;;6243105;23;20608;-83
2023/06/14 12:41:43;;;;;;;1.83;1.08;;;29.40;56.70;;;;;;6240082;23;20171;-84
2023/06/14 12:44:12;;;;;;;0.85;0.82;;;29.40;56.80;;;;;;6242942;23;20171;-83
2023/06/14 12:46:41;;;;;;;0.70;0.70;;;29.40;56.80;;;;;;6243713;23;20174;-83
2023/06/14 12:49:10;;;;;;;0.60;0.55;;;29.40;56.70;;;;;;6244146;23;20497;-84
2023/06/14 12:51:39;;;;;;;1.63;0.88;;;29.40;56.30;;;;;;6243002;23;20512;-83
2023/06/14 12:54:08;;;;;;;1.30;0.85;;;29.40;55.80;;;;;;6242656;23;20636;-83
2023/06/14 12:56:38;;;;;;;0.35;0.35;;;29.30;55.80;;;;;;6243563;23;20181;-83
2023/06/14 12:59:07;;;;;;;9.07;0.60;;;29.30;56.00;;;;;;6243385;23;20162;-83
2023/06/14 13:01:35;;;;;;;1.02;0.93;;;29.40;56.00;;;;;;6243476;23;20512;-83